sensor_id;sensor_type;location;lat;lon;timestamp;P1;durP1;ratioP1;P2;durP2;ratioP2
73100;SDS011;61288;53.446;-2.266;2023-03-31T00:00:31;10.18;;;1.80;;
73100;SDS011;61288;53.446;-2.266;2023-03-31T00:02:57;11.35;;;2.00;;
73100;SDS011;61288;53.446;-2.266;2023-03-31T00:05:23;10.90;;;2.05;;
73100;SDS011;61288;53.446;-2.266;2023-03-31T00:07:53;9.82;;;1.92;;
73100;SDS011;61288;53.446;-2.266;2023-03-31T00:10:31;7.65;;;2.30;;
73100;SDS011;61288;53.446;-2.266;2023-03-31T00:13:01;10.25;;;1.90;;
73100;SDS011;61288;53.446;-2.266;2023-03-31T00:15:26;8.70;;;1.92;;
73100;SDS011;61288;53.446;-2.266;2023-03-31T00:17:52;7.90;;;2.13;;
73100;SDS011;61288;53.446;-2.266;2023-03-31T00:20:18;9.82;;;1.98;;
73100;SDS011;61288;53.446;-2.266;2023-03-31T00:22:44;6.07;;;1.35;;
73100;SDS011;61288;53.446;-2.266;2023-03-31T00:25:11;6.25;;;1.42;;
73100;SDS011;61288;53.446;-2.266;2023-03-31T00:27:40;9.85;;;1.60;;
73100;SDS011;61288;53.446;-2.266;2023-03-31T00:30:11;8.23;;;1.80;;
73100;SDS011;61288;53.446;-2.266;2023-03-31T00:32:37;8.18;;;1.33;;
73100;SDS011;61288;53.446;-2.266;2023-03-31T00:35:03;5.32;;;1.35;;
73100;SDS011;61288;53.446;-2.266;2023-03-31T00:37:30;6.60;;;1.55;;
73100;SDS011;61288;53.446;-2.266;2023-03-31T00:39:57;5.53;;;1.40;;
73100;SDS011;61288;53.446;-2.266;2023-03-31T00:42:23;5.35;;;1.70;;
73100;SDS011;61288;53.446;-2.266;2023-03-31T00:47:51;4.10;;;1.40;;
73100;SDS011;61288;53.446;-2.266;2023-03-31T00:50:21;6.55;;;1.50;;
73100;SDS011;61288;53.446;-2.266;2023-03-31T00:52:51;7.28;;;1.75;;
73100;SDS011;61288;53.446;-2.266;2023-03-31T00:55:23;6.57;;;1.80;;
73100;SDS011;61288;53.446;-2.266;2023-03-31T00:57:55;9.80;;;1.70;;
73100;SDS011;61288;53.446;-2.266;2023-03-31T01:00:22;8.85;;;2.33;;
73100;SDS011;61288;53.446;-2.266;2023-03-31T01:02:53;7.28;;;1.60;;
73100;SDS011;61288;53.446;-2.266;2023-03-31T01:05:33;5.82;;;1.85;;
73100;SDS011;61288;53.446;-2.266;2023-03-31T01:08:06;7.95;;;1.83;;
73100;SDS011;61288;53.446;-2.266;2023-03-31T01:10:35;9.13;;;2.05;;
73100;SDS011;61288;53.446;-2.266;2023-03-31T01:13:12;9.43;;;1.88;;
73100;SDS011;61288;53.446;-2.266;2023-03-31T01:15:39;7.72;;;1.90;;
73100;SDS011;61288;53.446;-2.266;2023-03-31T01:18:06;8.88;;;2.35;;
73100;SDS011;61288;53.446;-2.266;2023-03-31T01:35:28;8.20;;;1.98;;
73100;SDS011;61288;53.446;-2.266;2023-03-31T01:46:00;10.90;;;2.63;;
73100;SDS011;61288;53.446;-2.266;2023-03-31T01:48:44;7.68;;;2.05;;
73100;SDS011;61288;53.446;-2.266;2023-03-31T01:51:51;6.28;;;1.80;;
73100;SDS011;61288;53.446;-2.266;2023-03-31T01:54:41;9.38;;;1.90;;
73100;SDS011;61288;53.446;-2.266;2023-03-31T01:57:36;10.98;;;2.17;;
73100;SDS011;61288;53.446;-2.266;2023-03-31T02:00:09;5.75;;;1.70;;
73100;SDS011;61288;53.446;-2.266;2023-03-31T02:05:24;7.07;;;1.55;;
73100;SDS011;61288;53.446;-2.266;2023-03-31T02:07:58;7.95;;;1.83;;
73100;SDS011;61288;53.446;-2.266;2023-03-31T02:10:36;10.50;;;1.90;;
73100;SDS011;61288;53.446;-2.266;2023-03-31T02:13:04;10.30;;;2.60;;
73100;SDS011;61288;53.446;-2.266;2023-03-31T02:15:33;6.85;;;1.75;;
73100;SDS011;61288;53.446;-2.266;2023-03-31T02:18:02;6.85;;;2.10;;
73100;SDS011;61288;53.446;-2.266;2023-03-31T02:20:35;7.05;;;2.20;;
73100;SDS011;61288;53.446;-2.266;2023-03-31T02:23:03;7.05;;;1.60;;
73100;SDS011;61288;53.446;-2.266;2023-03-31T02:25:34;7.82;;;2.00;;
73100;SDS011;61288;53.446;-2.266;2023-03-31T02:28:08;7.63;;;1.70;;
73100;SDS011;61288;53.446;-2.266;2023-03-31T02:30:42;7.97;;;1.98;;
73100;SDS011;61288;53.446;-2.266;2023-03-31T02:33:13;7.28;;;1.80;;
73100;SDS011;61288;53.446;-2.266;2023-03-31T02:35:40;7.35;;;1.80;;
73100;SDS011;61288;53.446;-2.266;2023-03-31T02:38:06;9.18;;;2.10;;
73100;SDS011;61288;53.446;-2.266;2023-03-31T02:40:33;8.80;;;2.33;;
73100;SDS011;61288;53.446;-2.266;2023-03-31T02:42:59;13.10;;;1.83;;
73100;SDS011;61288;53.446;-2.266;2023-03-31T02:48:18;7.78;;;1.85;;
73100;SDS011;61288;53.446;-2.266;2023-03-31T02:51:16;9.38;;;2.13;;
73100;SDS011;61288;53.446;-2.266;2023-03-31T03:04:36;10.50;;;2.72;;
73100;SDS011;61288;53.446;-2.266;2023-03-31T03:07:29;8.75;;;2.25;;
73100;SDS011;61288;53.446;-2.266;2023-03-31T03:18:07;9.48;;;2.50;;
73100;SDS011;61288;53.446;-2.266;2023-03-31T03:20:33;10.07;;;2.03;;
73100;SDS011;61288;53.446;-2.266;2023-03-31T03:22:59;6.75;;;1.90;;
73100;SDS011;61288;53.446;-2.266;2023-03-31T03:25:25;8.95;;;1.88;;
73100;SDS011;61288;53.446;-2.266;2023-03-31T03:27:51;4.60;;;1.90;;
73100;SDS011;61288;53.446;-2.266;2023-03-31T03:30:19;9.88;;;2.50;;
73100;SDS011;61288;53.446;-2.266;2023-03-31T03:32:45;8.82;;;2.53;;
73100;SDS011;61288;53.446;-2.266;2023-03-31T03:35:11;8.45;;;2.63;;
73100;SDS011;61288;53.446;-2.266;2023-03-31T03:37:37;9.25;;;3.00;;
73100;SDS011;61288;53.446;-2.266;2023-03-31T03:40:02;9.27;;;3.03;;
73100;SDS011;61288;53.446;-2.266;2023-03-31T03:42:30;10.35;;;3.60;;
73100;SDS011;61288;53.446;-2.266;2023-03-31T03:44:56;11.55;;;4.18;;
73100;SDS011;61288;53.446;-2.266;2023-03-31T03:47:21;11.40;;;4.18;;
73100;SDS011;61288;53.446;-2.266;2023-03-31T03:49:46;13.75;;;4.10;;
73100;SDS011;61288;53.446;-2.266;2023-03-31T03:52:14;10.88;;;3.05;;
73100;SDS011;61288;53.446;-2.266;2023-03-31T03:54:43;11.05;;;3.00;;
73100;SDS011;61288;53.446;-2.266;2023-03-31T03:57:09;8.18;;;2.10;;
73100;SDS011;61288;53.446;-2.266;2023-03-31T03:59:34;5.43;;;1.60;;
73100;SDS011;61288;53.446;-2.266;2023-03-31T04:02:00;5.95;;;1.88;;
73100;SDS011;61288;53.446;-2.266;2023-03-31T04:04:25;4.30;;;1.30;;
73100;SDS011;61288;53.446;-2.266;2023-03-31T04:06:51;4.47;;;1.55;;
73100;SDS011;61288;53.446;-2.266;2023-03-31T04:09:16;7.18;;;1.77;;
73100;SDS011;61288;53.446;-2.266;2023-03-31T04:11:42;7.88;;;1.83;;
73100;SDS011;61288;53.446;-2.266;2023-03-31T04:14:07;6.28;;;1.70;;
73100;SDS011;61288;53.446;-2.266;2023-03-31T04:16:33;5.47;;;1.40;;
73100;SDS011;61288;53.446;-2.266;2023-03-31T04:18:58;3.20;;;1.40;;
73100;SDS011;61288;53.446;-2.266;2023-03-31T04:21:27;5.32;;;1.55;;
73100;SDS011;61288;53.446;-2.266;2023-03-31T04:23:54;7.38;;;1.60;;
73100;SDS011;61288;53.446;-2.266;2023-03-31T04:26:26;4.55;;;1.40;;
73100;SDS011;61288;53.446;-2.266;2023-03-31T04:28:56;5.40;;;1.25;;
73100;SDS011;61288;53.446;-2.266;2023-03-31T04:31:25;4.65;;;1.23;;
73100;SDS011;61288;53.446;-2.266;2023-03-31T04:33:52;5.57;;;1.40;;
73100;SDS011;61288;53.446;-2.266;2023-03-31T04:36:20;8.00;;;1.35;;
73100;SDS011;61288;53.446;-2.266;2023-03-31T04:38:47;6.07;;;1.48;;
73100;SDS011;61288;53.446;-2.266;2023-03-31T04:41:19;6.55;;;1.20;;
73100;SDS011;61288;53.446;-2.266;2023-03-31T04:43:48;4.38;;;1.30;;
73100;SDS011;61288;53.446;-2.266;2023-03-31T04:46:14;3.58;;;1.35;;
73100;SDS011;61288;53.446;-2.266;2023-03-31T04:48:40;1.45;;;1.10;;
73100;SDS011;61288;53.446;-2.266;2023-03-31T04:51:05;4.10;;;1.25;;
73100;SDS011;61288;53.446;-2.266;2023-03-31T04:53:31;3.38;;;1.15;;
73100;SDS011;61288;53.446;-2.266;2023-03-31T04:55:57;2.53;;;1.10;;
73100;SDS011;61288;53.446;-2.266;2023-03-31T04:58:22;3.10;;;1.30;;
73100;SDS011;61288;53.446;-2.266;2023-03-31T05:00:51;2.28;;;1.20;;
73100;SDS011;61288;53.446;-2.266;2023-03-31T05:03:17;3.50;;;1.17;;
73100;SDS011;61288;53.446;-2.266;2023-03-31T05:05:44;2.85;;;1.35;;
73100;SDS011;61288;53.446;-2.266;2023-03-31T05:08:09;4.38;;;1.35;;
73100;SDS011;61288;53.446;-2.266;2023-03-31T05:10:35;2.10;;;1.10;;
73100;SDS011;61288;53.446;-2.266;2023-03-31T05:13:00;2.95;;;1.13;;
73100;SDS011;61288;53.446;-2.266;2023-03-31T05:15:26;3.55;;;1.20;;
73100;SDS011;61288;53.446;-2.266;2023-03-31T05:17:53;3.28;;;1.35;;
73100;SDS011;61288;53.446;-2.266;2023-03-31T05:20:19;2.83;;;1.45;;
73100;SDS011;61288;53.446;-2.266;2023-03-31T05:22:45;2.53;;;1.40;;
73100;SDS011;61288;53.446;-2.266;2023-03-31T05:25:11;2.42;;;1.33;;
73100;SDS011;61288;53.446;-2.266;2023-03-31T05:27:45;1.85;;;1.00;;
73100;SDS011;61288;53.446;-2.266;2023-03-31T05:30:11;3.38;;;1.40;;
73100;SDS011;61288;53.446;-2.266;2023-03-31T05:32:38;2.30;;;1.30;;
73100;SDS011;61288;53.446;-2.266;2023-03-31T05:35:04;1.50;;;1.00;;
73100;SDS011;61288;53.446;-2.266;2023-03-31T05:37:29;2.28;;;1.20;;
73100;SDS011;61288;53.446;-2.266;2023-03-31T05:39:55;4.70;;;1.15;;
73100;SDS011;61288;53.446;-2.266;2023-03-31T05:42:21;1.80;;;1.17;;
73100;SDS011;61288;53.446;-2.266;2023-03-31T05:44:47;1.55;;;1.00;;
73100;SDS011;61288;53.446;-2.266;2023-03-31T05:47:12;2.35;;;0.95;;
73100;SDS011;61288;53.446;-2.266;2023-03-31T05:49:38;3.03;;;1.23;;
73100;SDS011;61288;53.446;-2.266;2023-03-31T05:52:04;2.20;;;1.20;;
73100;SDS011;61288;53.446;-2.266;2023-03-31T05:54:31;3.15;;;1.27;;
73100;SDS011;61288;53.446;-2.266;2023-03-31T05:56:56;2.15;;;1.25;;
73100;SDS011;61288;53.446;-2.266;2023-03-31T05:59:22;2.13;;;1.10;;
73100;SDS011;61288;53.446;-2.266;2023-03-31T06:01:47;1.63;;;1.15;;
73100;SDS011;61288;53.446;-2.266;2023-03-31T06:04:13;3.60;;;1.50;;
73100;SDS011;61288;53.446;-2.266;2023-03-31T06:06:38;2.03;;;1.20;;
73100;SDS011;61288;53.446;-2.266;2023-03-31T06:09:04;1.98;;;0.77;;
73100;SDS011;61288;53.446;-2.266;2023-03-31T06:11:30;2.30;;;1.00;;
73100;SDS011;61288;53.446;-2.266;2023-03-31T06:13:56;2.42;;;1.10;;
73100;SDS011;61288;53.446;-2.266;2023-03-31T06:16:21;1.35;;;0.95;;
73100;SDS011;61288;53.446;-2.266;2023-03-31T06:18:46;3.30;;;1.17;;
73100;SDS011;61288;53.446;-2.266;2023-03-31T06:21:13;0.80;;;0.80;;
73100;SDS011;61288;53.446;-2.266;2023-03-31T06:23:45;1.20;;;0.80;;
73100;SDS011;61288;53.446;-2.266;2023-03-31T06:26:13;0.77;;;0.77;;
73100;SDS011;61288;53.446;-2.266;2023-03-31T06:28:40;0.77;;;0.77;;
73100;SDS011;61288;53.446;-2.266;2023-03-31T06:31:10;1.20;;;0.88;;
73100;SDS011;61288;53.446;-2.266;2023-03-31T06:33:40;1.65;;;0.95;;
73100;SDS011;61288;53.446;-2.266;2023-03-31T06:36:07;1.00;;;0.90;;
73100;SDS011;61288;53.446;-2.266;2023-03-31T06:38:33;0.70;;;0.70;;
73100;SDS011;61288;53.446;-2.266;2023-03-31T06:40:59;0.80;;;0.80;;
73100;SDS011;61288;53.446;-2.266;2023-03-31T06:43:25;1.63;;;0.80;;
73100;SDS011;61288;53.446;-2.266;2023-03-31T06:45:51;0.88;;;0.88;;
73100;SDS011;61288;53.446;-2.266;2023-03-31T06:48:18;0.60;;;0.60;;
73100;SDS011;61288;53.446;-2.266;2023-03-31T06:50:43;1.85;;;0.90;;
73100;SDS011;61288;53.446;-2.266;2023-03-31T06:53:13;0.90;;;0.80;;
73100;SDS011;61288;53.446;-2.266;2023-03-31T06:55:38;1.95;;;1.00;;
73100;SDS011;61288;53.446;-2.266;2023-03-31T06:58:04;2.30;;;1.00;;
73100;SDS011;61288;53.446;-2.266;2023-03-31T07:00:30;3.15;;;1.02;;
73100;SDS011;61288;53.446;-2.266;2023-03-31T07:02:57;2.13;;;1.08;;
73100;SDS011;61288;53.446;-2.266;2023-03-31T07:05:23;1.33;;;1.10;;
73100;SDS011;61288;53.446;-2.266;2023-03-31T07:07:55;3.03;;;0.80;;
73100;SDS011;61288;53.446;-2.266;2023-03-31T07:10:25;1.27;;;1.00;;
73100;SDS011;61288;53.446;-2.266;2023-03-31T07:12:52;1.50;;;1.10;;
73100;SDS011;61288;53.446;-2.266;2023-03-31T07:15:18;2.53;;;1.15;;
73100;SDS011;61288;53.446;-2.266;2023-03-31T07:17:44;2.28;;;1.17;;
73100;SDS011;61288;53.446;-2.266;2023-03-31T07:20:11;2.58;;;1.20;;
73100;SDS011;61288;53.446;-2.266;2023-03-31T07:22:43;4.05;;;1.30;;
73100;SDS011;61288;53.446;-2.266;2023-03-31T07:25:10;1.80;;;1.10;;
73100;SDS011;61288;53.446;-2.266;2023-03-31T07:27:37;5.78;;;1.13;;
73100;SDS011;61288;53.446;-2.266;2023-03-31T07:30:04;3.80;;;1.15;;
73100;SDS011;61288;53.446;-2.266;2023-03-31T07:32:41;1.98;;;1.05;;
73100;SDS011;61288;53.446;-2.266;2023-03-31T07:35:07;1.70;;;1.10;;
73100;SDS011;61288;53.446;-2.266;2023-03-31T07:37:35;1.85;;;1.23;;
73100;SDS011;61288;53.446;-2.266;2023-03-31T07:40:02;4.05;;;1.20;;
73100;SDS011;61288;53.446;-2.266;2023-03-31T07:42:32;1.58;;;0.80;;
73100;SDS011;61288;53.446;-2.266;2023-03-31T07:44:57;2.53;;;1.10;;
73100;SDS011;61288;53.446;-2.266;2023-03-31T07:47:23;2.13;;;1.10;;
73100;SDS011;61288;53.446;-2.266;2023-03-31T07:49:49;2.22;;;1.02;;
73100;SDS011;61288;53.446;-2.266;2023-03-31T07:52:15;1.88;;;0.90;;
73100;SDS011;61288;53.446;-2.266;2023-03-31T07:54:42;2.67;;;1.00;;
73100;SDS011;61288;53.446;-2.266;2023-03-31T07:57:08;2.40;;;1.00;;
73100;SDS011;61288;53.446;-2.266;2023-03-31T07:59:34;1.38;;;0.60;;
73100;SDS011;61288;53.446;-2.266;2023-03-31T08:02:00;3.22;;;1.00;;
73100;SDS011;61288;53.446;-2.266;2023-03-31T08:04:25;0.90;;;0.90;;
73100;SDS011;61288;53.446;-2.266;2023-03-31T08:06:54;1.88;;;1.20;;
73100;SDS011;61288;53.446;-2.266;2023-03-31T08:09:22;3.65;;;1.65;;
73100;SDS011;61288;53.446;-2.266;2023-03-31T08:11:48;3.65;;;1.60;;
73100;SDS011;61288;53.446;-2.266;2023-03-31T08:14:14;3.53;;;1.30;;
73100;SDS011;61288;53.446;-2.266;2023-03-31T08:16:40;3.45;;;1.60;;
73100;SDS011;61288;53.446;-2.266;2023-03-31T08:19:05;2.22;;;1.38;;
73100;SDS011;61288;53.446;-2.266;2023-03-31T08:21:31;3.13;;;1.48;;
73100;SDS011;61288;53.446;-2.266;2023-03-31T08:23:56;2.92;;;1.50;;
73100;SDS011;61288;53.446;-2.266;2023-03-31T08:26:22;2.15;;;1.30;;
73100;SDS011;61288;53.446;-2.266;2023-03-31T08:28:49;2.45;;;1.30;;
73100;SDS011;61288;53.446;-2.266;2023-03-31T08:31:16;2.28;;;1.30;;
73100;SDS011;61288;53.446;-2.266;2023-03-31T08:33:48;2.60;;;1.33;;
73100;SDS011;61288;53.446;-2.266;2023-03-31T08:36:13;2.95;;;1.30;;
73100;SDS011;61288;53.446;-2.266;2023-03-31T08:38:40;1.55;;;1.10;;
73100;SDS011;61288;53.446;-2.266;2023-03-31T08:41:15;1.45;;;1.00;;
73100;SDS011;61288;53.446;-2.266;2023-03-31T08:44:52;0.93;;;0.88;;
73100;SDS011;61288;53.446;-2.266;2023-03-31T08:47:23;1.20;;;1.10;;
73100;SDS011;61288;53.446;-2.266;2023-03-31T08:49:56;2.08;;;1.08;;
73100;SDS011;61288;53.446;-2.266;2023-03-31T08:55:30;0.70;;;0.52;;
73100;SDS011;61288;53.446;-2.266;2023-03-31T08:58:06;1.00;;;0.80;;
73100;SDS011;61288;53.446;-2.266;2023-03-31T09:00:39;1.13;;;0.90;;
73100;SDS011;61288;53.446;-2.266;2023-03-31T09:03:36;1.00;;;0.90;;
73100;SDS011;61288;53.446;-2.266;2023-03-31T09:06:08;1.75;;;1.02;;
73100;SDS011;61288;53.446;-2.266;2023-03-31T09:08:41;2.85;;;1.35;;
73100;SDS011;61288;53.446;-2.266;2023-03-31T09:11:09;3.85;;;1.42;;
73100;SDS011;61288;53.446;-2.266;2023-03-31T09:16:29;3.17;;;1.30;;
73100;SDS011;61288;53.446;-2.266;2023-03-31T09:19:00;3.35;;;1.45;;
73100;SDS011;61288;53.446;-2.266;2023-03-31T09:21:28;3.25;;;1.65;;
73100;SDS011;61288;53.446;-2.266;2023-03-31T09:26:40;3.75;;;1.55;;
73100;SDS011;61288;53.446;-2.266;2023-03-31T09:29:33;5.32;;;1.50;;
73100;SDS011;61288;53.446;-2.266;2023-03-31T09:32:00;2.42;;;1.60;;
73100;SDS011;61288;53.446;-2.266;2023-03-31T09:34:28;4.10;;;1.58;;
73100;SDS011;61288;53.446;-2.266;2023-03-31T09:36:57;4.07;;;1.60;;
73100;SDS011;61288;53.446;-2.266;2023-03-31T09:39:22;2.92;;;1.58;;
73100;SDS011;61288;53.446;-2.266;2023-03-31T09:41:49;3.55;;;1.30;;
73100;SDS011;61288;53.446;-2.266;2023-03-31T09:44:51;3.67;;;1.48;;
73100;SDS011;61288;53.446;-2.266;2023-03-31T09:47:24;2.13;;;1.30;;
73100;SDS011;61288;53.446;-2.266;2023-03-31T09:50:03;4.80;;;1.73;;
73100;SDS011;61288;53.446;-2.266;2023-03-31T09:52:30;4.88;;;1.60;;
73100;SDS011;61288;53.446;-2.266;2023-03-31T09:58:10;4.95;;;1.58;;
73100;SDS011;61288;53.446;-2.266;2023-03-31T10:00:39;5.20;;;2.00;;
73100;SDS011;61288;53.446;-2.266;2023-03-31T10:03:09;6.43;;;1.63;;
73100;SDS011;61288;53.446;-2.266;2023-03-31T10:05:49;5.45;;;1.80;;
73100;SDS011;61288;53.446;-2.266;2023-03-31T10:10:46;3.58;;;1.65;;
73100;SDS011;61288;53.446;-2.266;2023-03-31T10:13:48;5.15;;;1.60;;
73100;SDS011;61288;53.446;-2.266;2023-03-31T10:16:26;4.32;;;1.67;;
73100;SDS011;61288;53.446;-2.266;2023-03-31T10:19:10;3.75;;;1.50;;
73100;SDS011;61288;53.446;-2.266;2023-03-31T10:21:38;4.15;;;1.70;;
73100;SDS011;61288;53.446;-2.266;2023-03-31T10:24:07;4.75;;;1.95;;
73100;SDS011;61288;53.446;-2.266;2023-03-31T10:26:36;5.03;;;1.80;;
73100;SDS011;61288;53.446;-2.266;2023-03-31T10:29:05;3.70;;;1.50;;
73100;SDS011;61288;53.446;-2.266;2023-03-31T10:31:37;4.68;;;1.73;;
73100;SDS011;61288;53.446;-2.266;2023-03-31T10:34:04;5.60;;;1.63;;
73100;SDS011;61288;53.446;-2.266;2023-03-31T10:36:32;3.17;;;1.38;;
73100;SDS011;61288;53.446;-2.266;2023-03-31T10:38:59;4.90;;;1.58;;
73100;SDS011;61288;53.446;-2.266;2023-03-31T10:41:33;3.35;;;1.48;;
73100;SDS011;61288;53.446;-2.266;2023-03-31T10:44:00;3.67;;;1.55;;
73100;SDS011;61288;53.446;-2.266;2023-03-31T10:46:47;2.85;;;1.40;;
73100;SDS011;61288;53.446;-2.266;2023-03-31T10:51:50;1.67;;;0.93;;
73100;SDS011;61288;53.446;-2.266;2023-03-31T10:54:17;2.97;;;1.40;;
73100;SDS011;61288;53.446;-2.266;2023-03-31T10:56:46;1.40;;;1.10;;
73100;SDS011;61288;53.446;-2.266;2023-03-31T11:07:14;1.67;;;0.90;;
73100;SDS011;61288;53.446;-2.266;2023-03-31T11:10:02;2.67;;;1.13;;
73100;SDS011;61288;53.446;-2.266;2023-03-31T11:16:05;2.80;;;1.17;;
73100;SDS011;61288;53.446;-2.266;2023-03-31T11:18:56;3.42;;;1.20;;
73100;SDS011;61288;53.446;-2.266;2023-03-31T11:27:13;1.67;;;1.00;;
73100;SDS011;61288;53.446;-2.266;2023-03-31T11:35:43;2.17;;;1.02;;
73100;SDS011;61288;53.446;-2.266;2023-03-31T11:38:26;3.47;;;1.00;;
73100;SDS011;61288;53.446;-2.266;2023-03-31T11:41:13;1.98;;;1.10;;
73100;SDS011;61288;53.446;-2.266;2023-03-31T11:46:26;2.10;;;1.00;;
73100;SDS011;61288;53.446;-2.266;2023-03-31T11:49:05;2.63;;;1.23;;
73100;SDS011;61288;53.446;-2.266;2023-03-31T11:54:33;4.00;;;1.42;;
73100;SDS011;61288;53.446;-2.266;2023-03-31T11:57:01;4.18;;;1.38;;
73100;SDS011;61288;53.446;-2.266;2023-03-31T11:59:34;4.20;;;1.40;;
73100;SDS011;61288;53.446;-2.266;2023-03-31T12:02:15;5.55;;;1.73;;
73100;SDS011;61288;53.446;-2.266;2023-03-31T12:04:43;3.13;;;1.48;;
73100;SDS011;61288;53.446;-2.266;2023-03-31T12:12:48;5.80;;;1.60;;
73100;SDS011;61288;53.446;-2.266;2023-03-31T12:18:48;4.45;;;1.60;;
73100;SDS011;61288;53.446;-2.266;2023-03-31T12:21:18;6.65;;;1.52;;
73100;SDS011;61288;53.446;-2.266;2023-03-31T12:23:45;7.32;;;1.55;;
73100;SDS011;61288;53.446;-2.266;2023-03-31T12:28:57;6.93;;;1.83;;
73100;SDS011;61288;53.446;-2.266;2023-03-31T12:31:28;5.10;;;1.80;;
73100;SDS011;61288;53.446;-2.266;2023-03-31T12:34:00;5.80;;;1.90;;
73100;SDS011;61288;53.446;-2.266;2023-03-31T12:50:03;7.32;;;1.90;;
73100;SDS011;61288;53.446;-2.266;2023-03-31T13:01:03;8.82;;;1.70;;
73100;SDS011;61288;53.446;-2.266;2023-03-31T13:03:43;6.88;;;2.13;;
73100;SDS011;61288;53.446;-2.266;2023-03-31T13:06:57;6.47;;;2.22;;
73100;SDS011;61288;53.446;-2.266;2023-03-31T13:14:02;7.30;;;1.80;;
73100;SDS011;61288;53.446;-2.266;2023-03-31T13:16:32;7.60;;;1.73;;
73100;SDS011;61288;53.446;-2.266;2023-03-31T13:18:59;5.78;;;2.00;;
73100;SDS011;61288;53.446;-2.266;2023-03-31T13:21:25;7.22;;;1.90;;
73100;SDS011;61288;53.446;-2.266;2023-03-31T13:23:51;6.82;;;1.90;;
73100;SDS011;61288;53.446;-2.266;2023-03-31T13:34:28;2.63;;;1.30;;
73100;SDS011;61288;53.446;-2.266;2023-03-31T13:44:59;3.97;;;1.52;;
73100;SDS011;61288;53.446;-2.266;2023-03-31T14:09:36;3.13;;;1.30;;
73100;SDS011;61288;53.446;-2.266;2023-03-31T14:12:18;3.33;;;1.50;;
73100;SDS011;61288;53.446;-2.266;2023-03-31T14:14:51;3.88;;;1.60;;
73100;SDS011;61288;53.446;-2.266;2023-03-31T14:17:25;4.25;;;1.50;;
73100;SDS011;61288;53.446;-2.266;2023-03-31T14:31:06;2.55;;;1.13;;
73100;SDS011;61288;53.446;-2.266;2023-03-31T14:39:03;2.70;;;1.30;;
73100;SDS011;61288;53.446;-2.266;2023-03-31T14:41:31;2.05;;;1.20;;
73100;SDS011;61288;53.446;-2.266;2023-03-31T14:43:59;2.75;;;1.10;;
73100;SDS011;61288;53.446;-2.266;2023-03-31T14:46:29;4.15;;;1.40;;
73100;SDS011;61288;53.446;-2.266;2023-03-31T14:49:04;2.35;;;0.95;;
73100;SDS011;61288;53.446;-2.266;2023-03-31T14:51:41;3.00;;;1.17;;
73100;SDS011;61288;53.446;-2.266;2023-03-31T14:54:16;4.38;;;1.55;;
73100;SDS011;61288;53.446;-2.266;2023-03-31T14:56:43;2.20;;;0.90;;
73100;SDS011;61288;53.446;-2.266;2023-03-31T14:59:18;4.35;;;1.25;;
73100;SDS011;61288;53.446;-2.266;2023-03-31T15:01:50;1.90;;;1.13;;
73100;SDS011;61288;53.446;-2.266;2023-03-31T15:04:16;4.55;;;1.33;;
73100;SDS011;61288;53.446;-2.266;2023-03-31T15:06:46;4.05;;;1.30;;
73100;SDS011;61288;53.446;-2.266;2023-03-31T15:09:19;3.28;;;1.50;;
73100;SDS011;61288;53.446;-2.266;2023-03-31T15:11:58;3.22;;;1.20;;
73100;SDS011;61288;53.446;-2.266;2023-03-31T15:14:32;7.07;;;1.70;;
73100;SDS011;61288;53.446;-2.266;2023-03-31T15:17:00;4.72;;;1.65;;
73100;SDS011;61288;53.446;-2.266;2023-03-31T15:19:26;4.15;;;1.30;;
73100;SDS011;61288;53.446;-2.266;2023-03-31T15:21:54;3.95;;;1.38;;
73100;SDS011;61288;53.446;-2.266;2023-03-31T15:24:25;1.00;;;0.90;;
73100;SDS011;61288;53.446;-2.266;2023-03-31T15:26:56;1.58;;;0.90;;
73100;SDS011;61288;53.446;-2.266;2023-03-31T15:32:33;3.85;;;1.42;;
73100;SDS011;61288;53.446;-2.266;2023-03-31T15:35:00;2.55;;;1.20;;
73100;SDS011;61288;53.446;-2.266;2023-03-31T15:37:46;1.95;;;1.10;;
73100;SDS011;61288;53.446;-2.266;2023-03-31T15:42:56;4.28;;;1.27;;
73100;SDS011;61288;53.446;-2.266;2023-03-31T15:48:01;4.15;;;1.30;;
73100;SDS011;61288;53.446;-2.266;2023-03-31T15:50:31;3.42;;;1.70;;
73100;SDS011;61288;53.446;-2.266;2023-03-31T15:52:58;3.60;;;1.38;;
73100;SDS011;61288;53.446;-2.266;2023-03-31T15:55:30;5.00;;;1.40;;
73100;SDS011;61288;53.446;-2.266;2023-03-31T15:58:03;4.25;;;1.48;;
73100;SDS011;61288;53.446;-2.266;2023-03-31T16:03:00;5.07;;;1.70;;
73100;SDS011;61288;53.446;-2.266;2023-03-31T16:08:20;6.95;;;1.90;;
73100;SDS011;61288;53.446;-2.266;2023-03-31T16:10:46;6.10;;;1.63;;
73100;SDS011;61288;53.446;-2.266;2023-03-31T16:13:16;6.05;;;1.90;;
73100;SDS011;61288;53.446;-2.266;2023-03-31T16:15:48;5.50;;;1.60;;
73100;SDS011;61288;53.446;-2.266;2023-03-31T16:18:29;4.95;;;1.40;;
73100;SDS011;61288;53.446;-2.266;2023-03-31T16:21:00;3.85;;;1.40;;
73100;SDS011;61288;53.446;-2.266;2023-03-31T16:23:30;2.92;;;1.40;;
73100;SDS011;61288;53.446;-2.266;2023-03-31T16:26:02;5.45;;;1.40;;
73100;SDS011;61288;53.446;-2.266;2023-03-31T16:28:31;5.28;;;1.48;;
73100;SDS011;61288;53.446;-2.266;2023-03-31T16:31:00;3.05;;;1.20;;
73100;SDS011;61288;53.446;-2.266;2023-03-31T16:33:26;3.67;;;1.60;;
73100;SDS011;61288;53.446;-2.266;2023-03-31T16:35:54;4.75;;;1.50;;
73100;SDS011;61288;53.446;-2.266;2023-03-31T16:38:22;3.70;;;1.40;;
73100;SDS011;61288;53.446;-2.266;2023-03-31T16:40:52;4.47;;;1.40;;
73100;SDS011;61288;53.446;-2.266;2023-03-31T16:43:21;4.68;;;1.80;;
73100;SDS011;61288;53.446;-2.266;2023-03-31T16:45:55;5.85;;;1.73;;
73100;SDS011;61288;53.446;-2.266;2023-03-31T16:48:23;7.28;;;1.90;;
73100;SDS011;61288;53.446;-2.266;2023-03-31T16:50:54;5.65;;;2.00;;
73100;SDS011;61288;53.446;-2.266;2023-03-31T16:53:31;9.10;;;2.30;;
73100;SDS011;61288;53.446;-2.266;2023-03-31T16:55:58;4.20;;;1.65;;
73100;SDS011;61288;53.446;-2.266;2023-03-31T16:58:24;6.35;;;1.98;;
73100;SDS011;61288;53.446;-2.266;2023-03-31T17:00:53;3.67;;;1.65;;
73100;SDS011;61288;53.446;-2.266;2023-03-31T17:03:20;4.82;;;1.60;;
73100;SDS011;61288;53.446;-2.266;2023-03-31T17:05:55;6.13;;;1.58;;
73100;SDS011;61288;53.446;-2.266;2023-03-31T17:08:22;5.05;;;1.73;;
73100;SDS011;61288;53.446;-2.266;2023-03-31T17:10:50;5.45;;;1.60;;
73100;SDS011;61288;53.446;-2.266;2023-03-31T17:13:18;8.98;;;2.20;;
73100;SDS011;61288;53.446;-2.266;2023-03-31T17:15:44;8.63;;;2.65;;
73100;SDS011;61288;53.446;-2.266;2023-03-31T17:18:10;6.55;;;2.50;;
73100;SDS011;61288;53.446;-2.266;2023-03-31T17:20:36;6.80;;;1.88;;
73100;SDS011;61288;53.446;-2.266;2023-03-31T17:23:01;3.80;;;1.80;;
73100;SDS011;61288;53.446;-2.266;2023-03-31T17:25:27;5.03;;;2.00;;
73100;SDS011;61288;53.446;-2.266;2023-03-31T17:27:52;5.13;;;1.70;;
73100;SDS011;61288;53.446;-2.266;2023-03-31T17:30:19;4.80;;;1.88;;
73100;SDS011;61288;53.446;-2.266;2023-03-31T17:32:45;6.50;;;2.30;;
73100;SDS011;61288;53.446;-2.266;2023-03-31T17:35:12;4.82;;;1.70;;
73100;SDS011;61288;53.446;-2.266;2023-03-31T17:37:44;6.65;;;1.90;;
73100;SDS011;61288;53.446;-2.266;2023-03-31T17:40:10;5.00;;;2.00;;
73100;SDS011;61288;53.446;-2.266;2023-03-31T17:42:36;7.43;;;2.03;;
73100;SDS011;61288;53.446;-2.266;2023-03-31T17:45:03;9.55;;;2.30;;
73100;SDS011;61288;53.446;-2.266;2023-03-31T17:47:29;5.75;;;1.90;;
73100;SDS011;61288;53.446;-2.266;2023-03-31T17:49:56;6.55;;;1.80;;
73100;SDS011;61288;53.446;-2.266;2023-03-31T17:52:23;9.48;;;2.15;;
73100;SDS011;61288;53.446;-2.266;2023-03-31T17:54:49;6.25;;;2.10;;
73100;SDS011;61288;53.446;-2.266;2023-03-31T17:57:15;5.95;;;2.03;;
73100;SDS011;61288;53.446;-2.266;2023-03-31T17:59:41;9.02;;;2.05;;
73100;SDS011;61288;53.446;-2.266;2023-03-31T18:02:10;4.82;;;1.70;;
73100;SDS011;61288;53.446;-2.266;2023-03-31T18:04:37;6.90;;;2.28;;
73100;SDS011;61288;53.446;-2.266;2023-03-31T18:07:02;5.38;;;2.03;;
73100;SDS011;61288;53.446;-2.266;2023-03-31T18:09:28;8.25;;;2.42;;
73100;SDS011;61288;53.446;-2.266;2023-03-31T18:11:53;6.97;;;2.35;;